Time;durP1;ratioP1;P1;durP2;ratioP2;P2;SDS_P1;SDS_P2;PMS_P1;PMS_P2;Temp;Humidity;BMP_temperature;BMP_pressure;BME280_temperature;BME280_humidity;BME280_pressure;Samples;Min_cycle;Max_cycle;Signal;HPM_P1;HPM_P2
2022/10/29 00:00:14;;;;;;;9.23;4.13;;;;;;;-145.48;100.00;64539.38;5978988;29;20050;-89
2022/10/29 00:03:16;;;;;;;11.10;4.57;;;;;;;-145.48;100.00;64539.38;5993078;29;20050;-89
2022/10/29 00:06:18;;;;;;;9.88;4.57;;;;;;;-145.48;100.00;64539.38;5978612;29;20054;-89
2022/10/29 00:09:20;;;;;;;13.68;5.38;;;;;;;-145.48;100.00;64539.38;5979432;29;20049;-89
2022/10/29 00:12:22;;;;;;;10.50;4.97;;;;;;;-145.48;100.00;64539.38;5977798;29;20505;-89
2022/10/29 00:15:24;;;;;;;10.75;4.50;;;;;;;-145.48;100.00;64539.38;5972303;29;20074;-89
2022/10/29 00:18:26;;;;;;;11.40;4.93;;;;;;;-145.48;100.00;64539.38;5978659;29;20046;-89
2022/10/29 00:21:27;;;;;;;16.77;5.55;;;;;;;-145.48;100.00;64539.38;5992395;29;20123;-89
2022/10/29 00:24:29;;;;;;;14.85;5.15;;;;;;;-145.48;100.00;64539.38;5980168;29;21170;-89
2022/10/29 00:27:31;;;;;;;14.23;5.70;;;;;;;-145.48;100.00;64539.38;5979019;29;20077;-89
2022/10/29 00:30:34;;;;;;;16.48;5.07;;;;;;;-145.48;100.00;64539.38;5992732;29;20061;-89
2022/10/29 00:33:36;;;;;;;14.27;4.90;;;;;;;-145.48;100.00;64539.38;5991797;29;20050;-89
2022/10/29 00:36:38;;;;;;;10.35;5.32;;;;;;;-145.48;100.00;64539.38;5977166;29;20252;-89
2022/10/29 00:39:39;;;;;;;17.42;6.03;;;;;;;-145.48;100.00;64539.38;5985044;29;20050;-90
2022/10/29 00:42:41;;;;;;;9.80;5.22;;;;;;;-145.48;100.00;64539.38;5991561;29;20180;-90
2022/10/29 00:45:49;;;;;;;15.50;6.20;;;;;;;-145.48;100.00;64539.38;5977701;29;20515;-89
2022/10/29 00:48:55;;;;;;;9.63;5.20;;;;;;;-145.48;100.00;64539.38;5989177;29;20043;-89
2022/10/29 00:51:59;;;;;;;18.23;5.75;;;;;;;-145.48;100.00;64539.38;5977231;29;20187;-89
2022/10/29 00:55:06;;;;;;;13.57;5.25;;;;;;;-145.48;100.00;64539.38;5991505;29;20046;-89
2022/10/29 00:58:09;;;;;;;10.60;5.15;;;;;;;-145.48;100.00;64539.38;5978154;29;20050;-89
2022/10/29 01:01:11;;;;;;;12.70;4.80;;;;;;;-145.48;100.00;64539.38;5977245;29;20042;-89
2022/10/29 01:04:13;;;;;;;17.48;5.13;;;;;;;-145.48;100.00;64539.38;5969407;29;20140;-89
2022/10/29 01:07:15;;;;;;;19.35;5.47;;;;;;;-145.48;100.00;64539.38;5981124;29;20099;-89
2022/10/29 01:10:23;;;;;;;13.93;5.55;;;;;;;-145.48;100.00;64539.38;5981883;29;20054;-89
2022/10/29 01:13:46;;;;;;;12.90;5.25;;;;;;;-145.48;100.00;64539.38;5982229;29;20046;-89
2022/10/29 01:17:08;;;;;;;9.57;5.63;;;;;;;-145.48;100.00;64539.38;5980466;29;20050;-89
2022/10/29 01:20:35;;;;;;;15.90;5.30;;;;;;;-145.48;100.00;64539.38;5981792;29;20455;-89
2022/10/29 01:24:15;;;;;;;14.50;5.03;;;;;;;-145.48;100.00;64539.38;5978711;29;20728;-89
2022/10/29 01:27:46;;;;;;;12.70;5.95;;;;;;;-145.48;100.00;64539.38;5981739;29;20072;-89
2022/10/29 01:31:26;;;;;;;12.57;5.55;;;;;;;-145.48;100.00;64539.38;5995720;29;20145;-89
2022/10/29 01:34:45;;;;;;;10.98;6.07;;;;;;;-145.48;100.00;64539.38;5970735;29;20607;-89
2022/10/29 01:38:02;;;;;;;15.63;5.05;;;;;;;-145.48;100.00;64539.38;5996031;29;20376;-89
2022/10/29 01:41:18;;;;;;;11.43;5.47;;;;;;;-145.48;100.00;64539.38;5995085;29;20070;-89
2022/10/29 01:44:58;;;;;;;15.35;6.25;;;;;;;-145.48;100.00;64539.38;5980901;29;20057;-89
2022/10/29 01:48:06;;;;;;;17.45;6.53;;;;;;;-145.48;100.00;64539.38;5977243;29;20053;-89
2022/10/29 01:51:15;;;;;;;15.23;6.68;;;;;;;-145.48;100.00;64539.38;5995104;29;20054;-89
2022/10/29 01:54:17;;;;;;;16.17;6.13;;;;;;;-145.48;100.00;64539.38;5980372;29;20421;-89
2022/10/29 01:57:37;;;;;;;13.23;5.95;;;;;;;-145.48;100.00;64539.38;5980118;29;20108;-89
2022/10/29 02:01:03;;;;;;;15.48;6.22;;;;;;;-145.48;100.00;64539.38;5980791;29;20513;-89
2022/10/29 02:04:23;;;;;;;15.15;5.53;;;;;;;-145.48;100.00;64539.38;5993678;29;20042;-89
2022/10/29 02:07:56;;;;;;;13.65;5.70;;;;;;;-145.48;100.00;64539.38;5975910;29;20106;-89
2022/10/29 02:11:10;;;;;;;14.63;5.70;;;;;;;-145.48;100.00;64539.38;5975336;29;20042;-89
2022/10/29 02:14:41;;;;;;;13.90;5.32;;;;;;;-145.48;100.00;64539.38;5976403;29;20066;-90
2022/10/29 02:17:43;;;;;;;11.25;4.90;;;;;;;-145.48;100.00;64539.38;5979532;29;20055;-89
2022/10/29 02:20:47;;;;;;;12.20;5.53;;;;;;;-145.48;100.00;64539.38;5973587;29;20486;-89
2022/10/29 02:23:49;;;;;;;10.20;4.97;;;;;;;-145.48;100.00;64539.38;5978971;29;20050;-89
2022/10/29 02:26:51;;;;;;;15.77;6.05;;;;;;;-145.48;100.00;64539.38;5978517;29;20190;-89
2022/10/29 02:29:53;;;;;;;15.68;6.05;;;;;;;-145.48;100.00;64539.38;5974752;29;20046;-89
2022/10/29 02:32:55;;;;;;;14.75;7.00;;;;;;;-145.48;100.00;64539.38;5965877;29;20556;-89
2022/10/29 02:35:57;;;;;;;12.50;6.05;;;;;;;-145.48;100.00;64539.38;5993294;29;20495;-89
2022/10/29 02:38:59;;;;;;;19.05;6.25;;;;;;;-145.48;100.00;64539.38;5979060;29;20049;-89
2022/10/29 02:42:01;;;;;;;12.82;6.80;;;;;;;-145.48;100.00;64539.38;5976070;29;20062;-89
2022/10/29 02:45:04;;;;;;;18.80;7.00;;;;;;;-145.48;100.00;64539.38;5978371;29;20529;-89
2022/10/29 02:48:05;;;;;;;12.00;6.40;;;;;;;-145.48;100.00;64539.38;5988639;29;20049;-89
2022/10/29 02:51:08;;;;;;;18.30;6.50;;;;;;;-145.48;100.00;64539.38;5974345;29;20038;-89
2022/10/29 02:54:09;;;;;;;14.10;5.70;;;;;;;-145.48;100.00;64539.38;5977762;29;20046;-89
2022/10/29 02:57:11;;;;;;;16.80;6.22;;;;;;;-145.48;100.00;64539.38;5977838;29;20062;-89
2022/10/29 03:00:13;;;;;;;14.60;5.93;;;;;;;-145.48;100.00;64539.38;5976096;29;20054;-89
2022/10/29 03:03:15;;;;;;;11.85;6.03;;;;;;;-145.48;100.00;64539.38;5992518;29;20059;-89
2022/10/29 03:06:18;;;;;;;13.98;5.90;;;;;;;-145.48;100.00;64539.38;5979473;29;20117;-90
2022/10/29 03:09:21;;;;;;;11.15;5.45;;;;;;;-145.48;100.00;64539.38;5976984;29;20447;-89
2022/10/29 03:12:22;;;;;;;9.43;4.88;;;;;;;-145.48;100.00;64539.38;5974698;29;20541;-89
2022/10/29 03:15:24;;;;;;;13.55;5.55;;;;;;;-145.48;100.00;64539.38;5975325;29;20098;-89
2022/10/29 03:18:26;;;;;;;16.85;5.47;;;;;;;-145.48;100.00;64539.38;5978248;29;20066;-89
2022/10/29 03:21:27;;;;;;;12.55;5.38;;;;;;;-145.48;100.00;64539.38;5990523;29;20556;-89
2022/10/29 03:24:29;;;;;;;15.93;6.10;;;;;;;-145.48;100.00;64539.38;5977403;29;20860;-89
2022/10/29 03:27:31;;;;;;;14.32;5.93;;;;;;;-145.48;100.00;64539.38;5972210;29;20053;-89
2022/10/29 03:30:33;;;;;;;17.13;6.35;;;;;;;-145.48;100.00;64539.38;5985024;29;20081;-89
2022/10/29 03:33:35;;;;;;;14.55;7.28;;;;;;;-145.48;100.00;64539.38;5990178;29;20054;-89
2022/10/29 03:36:37;;;;;;;16.90;7.00;;;;;;;-145.48;100.00;64539.38;5992984;29;20050;-89
2022/10/29 03:39:39;;;;;;;14.48;6.88;;;;;;;-145.48;100.00;64539.38;5975228;29;20061;-89
2022/10/29 03:42:40;;;;;;;15.52;7.07;;;;;;;-145.48;100.00;64539.38;5976749;29;20051;-89
2022/10/29 03:45:42;;;;;;;9.93;6.07;;;;;;;-145.48;100.00;64539.38;5991347;29;20046;-89
2022/10/29 03:48:48;;;;;;;14.25;5.93;;;;;;;-145.48;100.00;64539.38;5991384;29;20134;-89
2022/10/29 03:51:50;;;;;;;19.75;7.22;;;;;;;-145.48;100.00;64539.38;5977530;29;20054;-90
2022/10/29 03:54:52;;;;;;;17.15;6.90;;;;;;;-145.48;100.00;64539.38;5977803;29;20047;-89
2022/10/29 03:57:54;;;;;;;16.05;6.60;;;;;;;-145.48;100.00;64539.38;5986200;29;20539;-89
2022/10/29 04:01:01;;;;;;;15.27;7.07;;;;;;;-145.48;100.00;64539.38;5973656;29;20046;-89
2022/10/29 04:04:03;;;;;;;14.02;6.68;;;;;;;-145.48;100.00;64539.38;5975954;29;20054;-89
2022/10/29 04:07:05;;;;;;;11.82;6.32;;;;;;;-145.48;100.00;64539.38;5991164;29;20517;-89
2022/10/29 04:10:07;;;;;;;16.48;7.13;;;;;;;-145.48;100.00;64539.38;5977136;29;20054;-89
2022/10/29 04:13:09;;;;;;;15.57;6.60;;;;;;;-145.48;100.00;64539.38;5975659;29;20046;-89
2022/10/29 04:16:11;;;;;;;15.57;6.10;;;;;;;-145.48;100.00;64539.38;5973733;29;20054;-89
2022/10/29 04:19:13;;;;;;;12.80;5.97;;;;;;;-145.48;100.00;64539.38;5977023;29;20510;-89
2022/10/29 04:22:14;;;;;;;11.75;6.03;;;;;;;-145.48;100.00;64539.38;5978951;29;20520;-90
2022/10/29 04:25:36;;;;;;;13.60;6.50;;;;;;;-145.48;100.00;64539.38;5977525;29;20129;-89
2022/10/29 04:28:58;;;;;;;14.40;6.57;;;;;;;-145.48;100.00;64539.38;5977860;29;20046;-89
2022/10/29 04:32:00;;;;;;;12.05;6.13;;;;;;;-145.48;100.00;64539.38;5976708;29;20081;-89
2022/10/29 04:35:02;;;;;;;17.65;6.32;;;;;;;-145.48;100.00;64539.38;5973125;29;20038;-89
2022/10/29 04:38:13;;;;;;;15.38;6.97;;;;;;;-145.48;100.00;64539.38;5976242;29;20084;-91
2022/10/29 04:41:14;;;;;;;12.88;6.57;;;;;;;-145.48;100.00;64539.38;5976732;29;20045;-91
2022/10/29 04:44:16;;;;;;;13.98;6.38;;;;;;;-145.48;100.00;64539.38;5980382;29;20050;-91
2022/10/29 04:47:18;;;;;;;17.42;7.63;;;;;;;-145.48;100.00;64539.38;5993779;29;20057;-91
2022/10/29 04:50:20;;;;;;;15.32;6.78;;;;;;;-145.48;100.00;64539.38;5979927;29;20046;-91
2022/10/29 04:53:22;;;;;;;26.25;7.72;;;;;;;-145.48;100.00;64539.38;5980217;29;20081;-91
2022/10/29 04:56:24;;;;;;;19.85;7.60;;;;;;;-145.48;100.00;64539.38;5994979;29;20138;-91
2022/10/29 04:59:26;;;;;;;17.05;6.78;;;;;;;-145.48;100.00;64539.38;5979921;29;20063;-91
2022/10/29 05:02:27;;;;;;;16.92;7.80;;;;;;;-145.48;100.00;64539.38;5993608;29;20089;-92
2022/10/29 05:05:30;;;;;;;24.52;8.23;;;;;;;-145.48;100.00;64539.38;5978572;29;20050;-91
2022/10/29 05:08:32;;;;;;;13.05;6.82;;;;;;;-145.48;100.00;64539.38;5978887;29;20053;-91
2022/10/29 05:11:34;;;;;;;16.20;7.05;;;;;;;-145.48;100.00;64539.38;5993145;29;20079;-89
2022/10/29 05:14:36;;;;;;;14.40;7.30;;;;;;;-145.48;100.00;64539.38;5981037;29;20046;-89
2022/10/29 05:17:38;;;;;;;17.67;7.72;;;;;;;-145.48;100.00;64539.38;5989671;29;20074;-89
2022/10/29 05:20:39;;;;;;;15.65;7.15;;;;;;;-145.48;100.00;64539.38;5978279;29;20058;-89
2022/10/29 05:23:42;;;;;;;14.73;7.75;;;;;;;-145.48;100.00;64539.38;5977172;29;20061;-89
2022/10/29 05:26:44;;;;;;;16.98;8.25;;;;;;;-145.48;100.00;64539.38;5993351;29;20050;-89
2022/10/29 05:29:45;;;;;;;20.23;8.00;;;;;;;-145.48;100.00;64539.38;5980262;29;20073;-89
2022/10/29 05:32:47;;;;;;;15.20;7.07;;;;;;;-145.48;100.00;64539.38;5974854;29;20078;-89
2022/10/29 05:35:50;;;;;;;10.95;6.72;;;;;;;-145.48;100.00;64539.38;5993584;29;20152;-89
2022/10/29 05:38:51;;;;;;;11.38;6.85;;;;;;;-145.48;100.00;64539.38;5991562;29;20111;-90
2022/10/29 05:41:53;;;;;;;17.23;7.35;;;;;;;-145.48;100.00;64539.38;5993770;29;20054;-89
2022/10/29 05:44:55;;;;;;;15.68;7.47;;;;;;;-145.48;100.00;64539.38;5993338;29;20058;-89
2022/10/29 05:48:03;;;;;;;20.23;7.80;;;;;;;-145.48;100.00;64539.38;5990297;29;20146;-89
2022/10/29 05:51:05;;;;;;;20.55;7.75;;;;;;;-145.48;100.00;64539.38;5976793;29;20233;-89
2022/10/29 05:54:07;;;;;;;15.55;7.28;;;;;;;-145.48;100.00;64539.38;5993674;29;20050;-89
2022/10/29 05:57:09;;;;;;;20.42;7.93;;;;;;;-145.48;100.00;64539.38;5992320;29;20203;-89
2022/10/29 06:00:11;;;;;;;15.10;7.20;;;;;;;-145.48;100.00;64539.38;5976445;29;20095;-89
2022/10/29 06:03:23;;;;;;;16.42;7.53;;;;;;;-145.48;100.00;64539.38;5980930;29;20077;-89
2022/10/29 06:06:24;;;;;;;14.98;7.80;;;;;;;-145.48;100.00;64539.38;5992126;29;20058;-92
2022/10/29 06:09:26;;;;;;;16.50;7.70;;;;;;;-145.48;100.00;64539.38;5977263;29;20057;-91
2022/10/29 06:12:31;;;;;;;15.95;7.30;;;;;;;-145.48;100.00;64539.38;5973269;29;20042;-91
2022/10/29 06:15:35;;;;;;;14.38;7.60;;;;;;;-145.48;100.00;64539.38;5978173;29;20049;-90
2022/10/29 06:18:37;;;;;;;16.30;7.57;;;;;;;-145.48;100.00;64539.38;5977712;29;20548;-90
2022/10/29 06:21:39;;;;;;;12.80;6.85;;;;;;;-145.48;100.00;64539.38;5979596;29;20593;-89
2022/10/29 06:24:41;;;;;;;16.83;7.38;;;;;;;-145.48;100.00;64539.38;5979644;29;20152;-89
2022/10/29 06:27:43;;;;;;;19.88;7.90;;;;;;;-145.48;100.00;64539.38;5978321;29;20501;-89
2022/10/29 06:30:47;;;;;;;17.52;7.55;;;;;;;-145.48;100.00;64539.38;5977846;29;20070;-89
2022/10/29 06:33:49;;;;;;;20.90;7.53;;;;;;;-145.48;100.00;64539.38;5984330;29;20042;-89
2022/10/29 06:36:51;;;;;;;16.80;6.88;;;;;;;-145.48;100.00;64539.38;5973080;29;20046;-90
2022/10/29 06:39:52;;;;;;;12.73;6.78;;;;;;;-145.48;100.00;64539.38;5978386;29;20034;-89
2022/10/29 06:43:05;;;;;;;16.55;7.40;;;;;;;-145.48;100.00;64539.38;5976247;29;20057;-89
2022/10/29 06:46:07;;;;;;;17.25;8.65;;;;;;;-145.48;100.00;64539.38;5976834;29;20042;-89
2022/10/29 06:49:09;;;;;;;20.55;8.07;;;;;;;-145.48;100.00;64539.38;5978026;29;20065;-89
2022/10/29 06:52:11;;;;;;;13.90;7.68;;;;;;;-145.48;100.00;64539.38;5976615;29;20034;-89
2022/10/29 06:55:13;;;;;;;16.75;8.25;;;;;;;-145.48;100.00;64539.38;5970412;29;20311;-90
2022/10/29 06:58:18;;;;;;;17.33;7.35;;;;;;;-145.48;100.00;64539.38;5971762;29;20130;-89
2022/10/29 07:01:19;;;;;;;16.10;7.15;;;;;;;-145.48;100.00;64539.38;5978722;29;20182;-89
2022/10/29 07:04:21;;;;;;;20.60;8.38;;;;;;;-145.48;100.00;64539.38;5972653;29;20353;-89
2022/10/29 07:07:23;;;;;;;13.73;7.43;;;;;;;-145.48;100.00;64539.38;5991978;29;20469;-89
2022/10/29 07:10:31;;;;;;;15.25;7.63;;;;;;;-145.48;100.00;64539.38;5975918;29;20179;-89
2022/10/29 07:13:33;;;;;;;14.77;7.95;;;;;;;-145.48;100.00;64539.38;5979781;29;20125;-89
2022/10/29 07:16:36;;;;;;;17.15;8.43;;;;;;;-145.48;100.00;64539.38;5971486;29;20325;-89
2022/10/29 07:19:37;;;;;;;16.13;8.10;;;;;;;-145.48;100.00;64539.38;5977783;29;20448;-89
2022/10/29 07:22:45;;;;;;;12.75;7.25;;;;;;;-145.48;100.00;64539.38;5976472;29;20396;-89
2022/10/29 07:25:47;;;;;;;17.63;8.43;;;;;;;-145.48;100.00;64539.38;5974947;29;20046;-89
2022/10/29 07:28:49;;;;;;;14.43;7.32;;;;;;;-145.48;100.00;64539.38;5979009;29;20471;-89
2022/10/29 07:31:50;;;;;;;17.25;7.65;;;;;;;-145.48;100.00;64539.38;5992462;29;20050;-89
2022/10/29 07:34:52;;;;;;;17.25;7.72;;;;;;;-145.48;100.00;64539.38;5974676;29;20046;-89
2022/10/29 07:37:59;;;;;;;17.33;7.70;;;;;;;-145.48;100.00;64539.38;5976104;29;20129;-89
2022/10/29 07:41:09;;;;;;;19.08;8.02;;;;;;;-145.48;100.00;64539.38;5978347;29;20046;-89
2022/10/29 07:44:11;;;;;;;19.05;7.78;;;;;;;-145.48;100.00;64539.38;5978637;29;20317;-89
2022/10/29 07:47:13;;;;;;;17.38;7.82;;;;;;;-145.48;100.00;64539.38;5976728;29;20406;-89
2022/10/29 07:50:15;;;;;;;13.48;6.85;;;;;;;-145.48;100.00;64539.38;5977963;29;20129;-89
2022/10/29 07:53:17;;;;;;;17.15;7.95;;;;;;;-145.48;100.00;64539.38;5989020;29;20094;-89
2022/10/29 07:56:19;;;;;;;13.70;6.65;;;;;;;-145.48;100.00;64539.38;5987996;29;20065;-89
2022/10/29 07:59:21;;;;;;;14.93;7.32;;;;;;;-145.48;100.00;64539.38;5977873;29;20046;-89
2022/10/29 08:02:23;;;;;;;13.75;7.45;;;;;;;-145.48;100.00;64539.38;5990918;29;20125;-89
2022/10/29 08:05:27;;;;;;;16.85;7.47;;;;;;;-145.48;100.00;64539.38;5979489;29;20090;-89
2022/10/29 08:08:29;;;;;;;22.33;7.95;;;;;;;-145.48;100.00;64539.38;5988464;29;20050;-89
2022/10/29 08:11:32;;;;;;;18.10;8.18;;;;;;;-145.48;100.00;64539.38;5980155;29;20053;-89
2022/10/29 08:14:34;;;;;;;14.65;7.15;;;;;;;-145.48;100.00;64539.38;5977568;29;20042;-89
2022/10/29 08:17:36;;;;;;;14.73;7.00;;;;;;;-145.48;100.00;64539.38;5975937;29;20397;-89
2022/10/29 08:20:38;;;;;;;16.38;6.95;;;;;;;-145.48;100.00;64539.38;5976694;29;20047;-89
2022/10/29 08:23:39;;;;;;;18.77;7.63;;;;;;;-145.48;100.00;64539.38;5991324;29;20065;-91
2022/10/29 08:26:42;;;;;;;15.38;7.97;;;;;;;-145.48;100.00;64539.38;5986657;29;20061;-90
2022/10/29 08:29:45;;;;;;;15.65;6.78;;;;;;;-145.48;100.00;64539.38;5987646;29;20652;-90
2022/10/29 08:32:46;;;;;;;16.70;7.40;;;;;;;-145.48;100.00;64539.38;5991558;29;20053;-90
2022/10/29 08:35:48;;;;;;;14.80;7.32;;;;;;;-145.48;100.00;64539.38;5973065;29;20078;-90
2022/10/29 08:38:50;;;;;;;14.32;6.80;;;;;;;-145.48;100.00;64539.38;5968745;29;20049;-90
2022/10/29 08:42:09;;;;;;;16.58;7.70;;;;;;;-145.48;100.00;64539.38;5976738;29;20065;-90
2022/10/29 08:45:33;;;;;;;16.52;6.68;;;;;;;-145.48;100.00;64539.38;5985416;29;20066;-89
2022/10/29 08:49:06;;;;;;;14.30;7.50;;;;;;;-145.48;100.00;64539.38;5975109;29;20053;-89
2022/10/29 08:52:43;;;;;;;14.27;6.38;;;;;;;-145.48;100.00;64539.38;5977310;29;20050;-90
2022/10/29 08:56:09;;;;;;;14.45;6.57;;;;;;;-145.48;100.00;64539.38;5969389;29;20103;-89
2022/10/29 08:59:15;;;;;;;15.07;6.70;;;;;;;-145.48;100.00;64539.38;5973468;29;20059;-90
2022/10/29 09:02:17;;;;;;;11.50;6.20;;;;;;;-145.48;100.00;64539.38;5972587;29;20540;-89
2022/10/29 09:05:24;;;;;;;14.13;6.50;;;;;;;-145.48;100.00;64539.38;5966405;29;20059;-89
2022/10/29 09:08:56;;;;;;;22.48;6.78;;;;;;;-145.48;100.00;64539.38;5972689;29;20057;-89
2022/10/29 09:12:23;;;;;;;12.55;6.55;;;;;;;-145.48;100.00;64539.38;5962919;29;20058;-89
2022/10/29 09:15:56;;;;;;;15.57;6.70;;;;;;;-145.48;100.00;64539.38;5970776;29;20046;-89
2022/10/29 09:19:07;;;;;;;12.88;6.07;;;;;;;-145.48;100.00;64539.38;5964699;29;20055;-89
2022/10/29 09:22:31;;;;;;;11.80;6.47;;;;;;;-145.48;100.00;64539.38;5958414;29;20050;-89
2022/10/29 09:25:43;;;;;;;13.68;6.15;;;;;;;-145.48;100.00;64539.38;5972765;29;20054;-89
2022/10/29 09:28:59;;;;;;;18.15;6.72;;;;;;;-145.48;100.00;64539.38;5976444;29;20556;-89
2022/10/29 09:32:08;;;;;;;13.70;5.88;;;;;;;-145.48;100.00;64539.38;5980369;29;20055;-90
2022/10/29 09:35:18;;;;;;;16.33;6.22;;;;;;;-145.48;100.00;64539.38;5980179;29;20047;-89
2022/10/29 09:38:39;;;;;;;18.10;6.35;;;;;;;-145.48;100.00;64539.38;5981187;29;20459;-89
2022/10/29 09:41:43;;;;;;;13.00;5.80;;;;;;;-145.48;100.00;64539.38;5978670;29;20742;-89
2022/10/29 09:44:56;;;;;;;10.45;5.43;;;;;;;-145.48;100.00;64539.38;5976147;29;20042;-90
2022/10/29 09:48:02;;;;;;;21.00;6.55;;;;;;;-145.48;100.00;64539.38;5973657;29;20167;-89
2022/10/29 09:51:16;;;;;;;9.48;4.90;;;;;;;-145.48;100.00;64539.38;5986047;29;20050;-89
2022/10/29 09:54:18;;;;;;;16.60;5.68;;;;;;;-145.48;100.00;64539.38;5977983;29;20168;-89
2022/10/29 09:57:28;;;;;;;13.85;5.68;;;;;;;-145.48;100.00;64539.38;5975526;29;20054;-89
2022/10/29 10:00:30;;;;;;;14.65;6.10;;;;;;;-145.48;100.00;64539.38;5980258;29;20066;-89
2022/10/29 10:03:46;;;;;;;14.55;5.32;;;;;;;-145.48;100.00;64539.38;5979744;29;20086;-89
2022/10/29 10:07:09;;;;;;;11.45;5.25;;;;;;;-145.48;100.00;64539.38;5978037;29;20050;-89
2022/10/29 10:10:22;;;;;;;18.08;5.80;;;;;;;-145.48;100.00;64539.38;5985403;29;20050;-90
2022/10/29 10:13:28;;;;;;;11.75;6.13;;;;;;;-145.48;100.00;64539.38;5979779;29;20057;-89
2022/10/29 10:16:32;;;;;;;13.73;5.55;;;;;;;-145.48;100.00;64539.38;5977004;29;20058;-89
2022/10/29 10:19:43;;;;;;;14.43;6.43;;;;;;;-145.48;100.00;64539.38;5993064;29;20038;-89
2022/10/29 10:22:50;;;;;;;12.25;5.70;;;;;;;-145.48;100.00;64539.38;5979542;29;20076;-90
2022/10/29 10:25:59;;;;;;;13.20;5.25;;;;;;;-145.48;100.00;64539.38;5976277;29;20050;-89
2022/10/29 10:29:16;;;;;;;10.52;5.40;;;;;;;-145.48;100.00;64539.38;5980380;29;20092;-89
2022/10/29 10:32:18;;;;;;;16.10;5.38;;;;;;;-145.48;100.00;64539.38;5979537;29;20554;-89
2022/10/29 10:35:30;;;;;;;13.50;4.82;;;;;;;-145.48;100.00;64539.38;5978872;29;20544;-90
2022/10/29 10:38:44;;;;;;;17.65;5.22;;;;;;;-145.48;100.00;64539.38;5976806;29;20042;-90
2022/10/29 10:41:48;;;;;;;16.80;6.50;;;;;;;-145.48;100.00;64539.38;5978508;29;20049;-90
2022/10/29 10:44:58;;;;;;;16.33;5.00;;;;;;;-145.48;100.00;64539.38;5992977;29;20050;-89
2022/10/29 10:48:00;;;;;;;14.52;4.75;;;;;;;-145.48;100.00;64539.38;5977798;29;20050;-90
2022/10/29 10:51:22;;;;;;;15.52;5.93;;;;;;;-145.48;100.00;64539.38;5977600;29;20202;-89
2022/10/29 10:54:43;;;;;;;13.10;6.03;;;;;;;-145.48;100.00;64539.38;5976647;29;20057;-90
2022/10/29 10:57:54;;;;;;;14.95;5.43;;;;;;;-145.48;100.00;64539.38;5977154;29;20133;-89
2022/10/29 11:00:59;;;;;;;14.75;6.10;;;;;;;-145.48;100.00;64539.38;5978975;29;20113;-89
2022/10/29 11:04:19;;;;;;;15.20;5.57;;;;;;;-145.48;100.00;64539.38;5976673;29;20414;-89
2022/10/29 11:07:24;;;;;;;14.48;6.03;;;;;;;-145.48;100.00;64539.38;5989630;29;20058;-90
2022/10/29 11:10:44;;;;;;;12.88;5.55;;;;;;;-145.48;100.00;64539.38;5976666;29;20050;-90
2022/10/29 11:13:49;;;;;;;14.18;5.28;;;;;;;-145.48;100.00;64539.38;5978690;29;20141;-90
2022/10/29 11:16:54;;;;;;;12.15;5.47;;;;;;;-145.48;100.00;64539.38;5978165;29;20047;-90
2022/10/29 11:20:00;;;;;;;15.32;5.85;;;;;;;-145.48;100.00;64539.38;5975486;29;20133;-90
2022/10/29 11:23:45;;;;;;;14.18;5.68;;;;;;;-145.48;100.00;64539.38;5978276;29;20054;-90
2022/10/29 11:26:53;;;;;;;12.25;5.40;;;;;;;-145.48;100.00;64539.38;5973450;29;20046;-90
2022/10/29 11:30:10;;;;;;;13.77;6.40;;;;;;;-145.48;100.00;64539.38;5975293;29;20902;-90
2022/10/29 11:33:34;;;;;;;17.35;5.45;;;;;;;-145.48;100.00;64539.38;5977726;29;20065;-90
2022/10/29 11:36:47;;;;;;;11.77;5.50;;;;;;;-145.48;100.00;64539.38;5983296;29;20038;-90
2022/10/29 11:39:52;;;;;;;10.48;5.32;;;;;;;-145.48;100.00;64539.38;5975463;29;20041;-90
2022/10/29 11:42:53;;;;;;;13.20;5.55;;;;;;;-145.48;100.00;64539.38;5976613;29;20494;-90
2022/10/29 11:46:33;;;;;;;10.50;5.00;;;;;;;-145.48;100.00;64539.38;5976807;29;20054;-90
2022/10/29 11:50:03;;;;;;;10.80;4.78;;;;;;;-145.48;100.00;64539.38;5978390;29;20429;-90
2022/10/29 11:53:36;;;;;;;10.32;5.10;;;;;;;-145.48;100.00;64539.38;5971816;29;20053;-90
2022/10/29 11:56:56;;;;;;;13.80;4.60;;;;;;;-145.48;100.00;64539.38;5990721;29;20045;-91
2022/10/29 12:00:17;;;;;;;11.52;5.10;;;;;;;-145.48;100.00;64539.38;5991557;29;20129;-90
2022/10/29 12:03:49;;;;;;;10.80;4.78;;;;;;;-145.48;100.00;64539.38;5970285;29;20060;-90
2022/10/29 12:07:03;;;;;;;11.50;5.30;;;;;;;-145.48;100.00;64539.38;5977027;29;20429;-91
2022/10/29 12:10:30;;;;;;;17.52;5.40;;;;;;;-145.48;100.00;64539.38;5988782;29;20057;-90
2022/10/29 12:14:09;;;;;;;9.57;4.47;;;;;;;-145.48;100.00;64539.38;5987420;29;20113;-90
2022/10/29 12:17:21;;;;;;;14.88;4.70;;;;;;;-145.48;100.00;64539.38;5974212;29;20155;-90
2022/10/29 12:20:49;;;;;;;15.55;4.90;;;;;;;-145.48;100.00;64539.38;5976072;29;20198;-90
2022/10/29 12:24:01;;;;;;;11.02;4.65;;;;;;;-145.48;100.00;64539.38;5975450;29;20055;-90
2022/10/29 12:27:34;;;;;;;14.18;5.25;;;;;;;-145.48;100.00;64539.38;5973828;29;20050;-91
2022/10/29 12:30:45;;;;;;;14.98;4.47;;;;;;;-145.48;100.00;64539.38;5971602;29;20099;-90
2022/10/29 12:33:49;;;;;;;;;;;;;;;-145.48;100.00;64539.38;5988017;29;20475;-90
2022/10/29 12:37:07;;;;;;;8.05;5.15;;;;;;;-145.48;100.00;64539.38;5973830;29;19935;-90
2022/10/29 12:40:23;;;;;;;11.10;4.75;;;;;;;-145.48;100.00;64539.38;5989869;29;20049;-90
2022/10/29 12:43:28;;;;;;;10.00;4.07;;;;;;;-145.48;100.00;64539.38;5971851;29;20639;-90
2022/10/29 12:46:47;;;;;;;11.38;4.88;;;;;;;-145.48;100.00;64539.38;5974968;29;20046;-91
2022/10/29 12:49:49;;;;;;;9.02;4.47;;;;;;;-145.48;100.00;64539.38;5977273;29;20057;-90
2022/10/29 12:53:10;;;;;;;8.65;4.63;;;;;;;-145.48;100.00;64539.38;5975360;29;20038;-91
2022/10/29 12:56:15;;;;;;;16.27;4.70;;;;;;;-145.48;100.00;64539.38;5973345;29;20057;-90
2022/10/29 12:59:23;;;;;;;12.45;5.10;;;;;;;-145.48;100.00;64539.38;5976056;29;20223;-91
2022/10/29 13:02:35;;;;;;;8.50;4.38;;;;;;;-145.48;100.00;64539.38;5991791;29;20062;-91
2022/10/29 13:05:42;;;;;;;13.23;4.03;;;;;;;-145.48;100.00;64539.38;5978389;29;20061;-91
2022/10/29 13:08:55;;;;;;;8.48;3.90;;;;;;;-145.48;100.00;64539.38;5979476;29;20043;-91
2022/10/29 13:12:03;;;;;;;6.57;4.13;;;;;;;-145.48;100.00;64539.38;5974886;29;21197;-91
2022/10/29 13:15:14;;;;;;;11.27;3.65;;;;;;;-145.48;100.00;64539.38;5980880;29;20038;-92
2022/10/29 13:18:38;;;;;;;13.90;4.40;;;;;;;-145.48;100.00;64539.38;5979207;29;20053;-91
2022/10/29 13:22:14;;;;;;;8.13;3.90;;;;;;;-145.48;100.00;64539.38;5981194;29;20493;-92
2022/10/29 13:25:32;;;;;;;16.25;5.28;;;;;;;-145.48;100.00;64539.38;5961097;29;20061;-90
2022/10/29 13:28:39;;;;;;;15.02;6.05;;;;;;;-145.48;100.00;64539.38;5966183;29;20058;-90
2022/10/29 13:31:45;;;;;;;9.75;4.55;;;;;;;-145.48;100.00;64539.38;5961946;29;20046;-91
2022/10/29 13:34:53;;;;;;;10.30;5.25;;;;;;;-145.48;100.00;64539.38;5971630;29;20058;-90
2022/10/29 13:38:10;;;;;;;12.13;4.85;;;;;;;-145.48;100.00;64539.38;5961834;29;20054;-91
2022/10/29 13:41:15;;;;;;;13.15;5.13;;;;;;;-145.48;100.00;64539.38;5974463;29;20666;-90
2022/10/29 13:44:25;;;;;;;10.65;4.07;;;;;;;-145.48;100.00;64539.38;5959647;29;20043;-90
2022/10/29 13:47:27;;;;;;;14.30;3.85;;;;;;;-145.48;100.00;64539.38;5960389;29;20442;-91
2022/10/29 13:50:30;;;;;;;9.77;3.40;;;;;;;-145.48;100.00;64539.38;5969480;29;20087;-90
2022/10/29 13:53:53;;;;;;;11.43;3.80;;;;;;;-145.48;100.00;64539.38;5976299;29;20505;-90
2022/10/29 13:57:08;;;;;;;9.73;3.33;;;;;;;-145.48;100.00;64539.38;5968915;29;20524;-90
2022/10/29 14:00:10;;;;;;;9.90;3.85;;;;;;;-145.48;100.00;64539.38;5977335;29;20081;-91
2022/10/29 14:03:35;;;;;;;8.93;3.85;;;;;;;-145.48;100.00;64539.38;5988966;29;20094;-90
2022/10/29 14:06:39;;;;;;;13.43;4.18;;;;;;;-145.48;100.00;64539.38;5979628;29;20046;-91